createdAt,value
2018-07-23T00:00:23.701Z,18.36
2018-07-23T00:01:44.700Z,18.39
2018-07-23T00:02:23.701Z,18.39
2018-07-23T00:03:45.209Z,18.32
2018-07-23T00:05:55.583Z,18.28
2018-07-23T00:07:15.914Z,18.31
2018-07-23T00:07:56.588Z,18.36
2018-07-23T00:08:55.590Z,18.28
2018-07-23T00:11:27.347Z,18.32
2018-07-23T00:12:27.358Z,18.35
2018-07-23T00:13:27.366Z,18.34
2018-07-23T00:14:27.854Z,18.35
2018-07-23T00:15:27.855Z,18.35
2018-07-23T00:16:27.854Z,18.35
2018-07-23T00:17:27.856Z,18.39
2018-07-23T00:18:28.355Z,18.35
2018-07-23T00:19:28.366Z,18.28
2018-07-23T00:20:29.301Z,18.31
2018-07-23T00:21:28.354Z,18.31
2018-07-23T00:22:28.354Z,18.25
2018-07-23T00:23:28.856Z,18.25
2018-07-23T00:24:28.854Z,18.13
2018-07-23T00:25:28.857Z,18.04
2018-07-23T00:26:28.857Z,18.10
2018-07-23T00:27:29.354Z,18.10
2018-07-23T00:28:28.570Z,18.14
2018-07-23T00:29:29.355Z,18.09
2018-07-23T00:30:29.365Z,18.13
2018-07-23T00:31:29.855Z,18.09
2018-07-23T00:32:29.854Z,18.04
2018-07-23T00:33:31.795Z,18.09
2018-07-23T00:34:29.854Z,18.07
2018-07-23T00:35:29.855Z,18.02
2018-07-23T00:36:30.354Z,18.02
2018-07-23T00:37:51.354Z,17.99
2018-07-23T00:38:30.356Z,18.02
2018-07-23T00:39:30.354Z,18.16
2018-07-23T00:40:33.852Z,18.16
2018-07-23T00:41:30.856Z,18.04
2018-07-23T00:42:31.852Z,18.09
2018-07-23T00:43:30.854Z,17.96
2018-07-23T00:44:31.355Z,18.01
2018-07-23T00:45:52.355Z,17.99
2018-07-23T00:46:31.354Z,18.02
2018-07-23T00:47:52.359Z,18.01
2018-07-23T00:50:30.610Z,18.01
2018-07-23T00:52:03.116Z,17.96
2018-07-23T00:53:03.117Z,17.89
2018-07-23T00:54:03.619Z,17.96
2018-07-23T00:55:03.618Z,17.80
2018-07-23T00:56:03.614Z,17.76
2018-07-23T00:57:03.617Z,17.84
2018-07-23T00:58:04.116Z,17.79
2018-07-23T00:59:04.116Z,17.76
2018-07-23T01:00:25.117Z,17.77
2018-07-23T01:01:04.116Z,17.66
2018-07-23T01:02:04.616Z,17.68
2018-07-23T01:03:04.617Z,17.62
2018-07-23T01:04:04.624Z,17.58
2018-07-23T01:05:04.617Z,17.63
2018-07-23T01:06:05.128Z,17.66
2018-07-23T01:07:05.117Z,17.66
2018-07-23T01:08:05.123Z,17.68
2018-07-23T01:09:05.116Z,17.63
2018-07-23T01:10:05.224Z,17.58
2018-07-23T01:11:05.616Z,17.60
2018-07-23T01:12:05.617Z,17.62
2018-07-23T01:13:06.617Z,17.62
2018-07-23T01:14:07.114Z,17.58
2018-07-23T01:15:06.117Z,17.62
2018-07-23T01:16:06.188Z,17.65
2018-07-23T01:17:06.116Z,17.63
2018-07-23T01:18:06.118Z,17.70
2018-07-23T01:19:06.250Z,17.63
2018-07-23T01:20:06.617Z,17.73
2018-07-23T01:21:06.620Z,17.70
2018-07-23T01:22:06.596Z,17.63
2018-07-23T01:23:34.620Z,17.66
2018-07-23T01:24:07.617Z,17.70
2018-07-23T01:25:07.616Z,17.66
2018-07-23T01:26:07.616Z,17.79
2018-07-23T01:27:35.119Z,17.71
2018-07-23T01:28:08.116Z,17.68
2018-07-23T01:29:09.051Z,17.70
2018-07-23T01:30:08.117Z,17.66
2018-07-23T01:31:14.617Z,17.68
2018-07-23T01:32:08.617Z,17.71
2018-07-23T01:33:29.614Z,17.68
2018-07-23T01:34:08.654Z,17.71
2018-07-23T01:35:09.116Z,17.63
2018-07-23T01:36:10.549Z,17.63
2018-07-23T01:37:12.115Z,17.57
2018-07-23T01:38:09.116Z,17.60
2018-07-23T01:39:09.616Z,17.62
2018-07-23T01:40:09.616Z,17.65
2018-07-23T01:41:09.618Z,17.65
2018-07-23T01:42:09.616Z,17.54
2018-07-23T01:44:41.398Z,17.39
2018-07-23T01:47:12.176Z,17.38
2018-07-23T01:48:33.901Z,17.38
2018-07-23T01:49:12.901Z,17.33
2018-07-23T01:51:44.646Z,17.22
2018-07-23T01:52:44.659Z,17.33
2018-07-23T01:53:59.153Z,17.24
2018-07-23T01:55:06.153Z,17.27
2018-07-23T01:55:46.158Z,17.25
2018-07-23T01:56:45.153Z,17.09
2018-07-23T02:00:38.416Z,17.10
2018-07-23T02:01:40.355Z,17.27
2018-07-23T02:02:17.415Z,17.21
2018-07-23T02:03:18.395Z,17.24
2018-07-23T02:04:38.913Z,17.18
2018-07-23T02:05:31.915Z,17.30
2018-07-23T02:06:17.915Z,17.25
2018-07-23T02:07:18.415Z,17.18
2018-07-23T02:08:18.414Z,17.28
2018-07-23T02:09:24.415Z,17.24
2018-07-23T02:10:18.417Z,17.22
2018-07-23T02:11:39.916Z,17.17
2018-07-23T02:12:18.915Z,17.25
2018-07-23T02:13:18.919Z,17.22
2018-07-23T02:14:18.915Z,17.15
2018-07-23T02:15:22.413Z,17.09
2018-07-23T02:16:25.413Z,17.15
2018-07-23T02:17:18.767Z,17.09
2018-07-23T02:18:19.473Z,17.05
2018-07-23T02:19:19.916Z,17.07
2018-07-23T02:22:12.321Z,17.00
2018-07-23T02:22:51.329Z,16.99
2018-07-23T02:23:51.341Z,16.99
2018-07-23T02:24:51.829Z,17.00
2018-07-23T02:25:52.825Z,16.98
2018-07-23T02:26:51.828Z,16.98
2018-07-23T02:27:51.828Z,17.05
2018-07-23T02:30:23.571Z,17.10
2018-07-23T02:31:23.576Z,17.07
2018-07-23T02:32:23.584Z,17.09
2018-07-23T02:33:24.079Z,17.06
2018-07-23T02:34:26.079Z,17.14
2018-07-23T02:35:24.079Z,17.15
2018-07-23T02:36:45.081Z,17.12
2018-07-23T02:38:55.833Z,17.18
2018-07-23T02:39:55.835Z,17.12
2018-07-23T02:40:55.837Z,17.17
2018-07-23T02:41:56.335Z,17.12
2018-07-23T02:42:56.334Z,17.15
2018-07-23T02:45:27.095Z,17.07
2018-07-23T02:46:27.194Z,17.14
2018-07-23T02:47:27.837Z,17.18
2018-07-23T02:48:28.338Z,17.12
2018-07-23T02:49:28.336Z,17.00
2018-07-23T02:50:28.336Z,17.10
2018-07-23T02:51:28.337Z,17.00
2018-07-23T02:52:28.842Z,17.02
2018-07-23T02:53:28.838Z,16.88
2018-07-23T02:54:28.837Z,16.80
2018-07-23T02:55:28.839Z,16.82
2018-07-23T02:56:29.353Z,16.85
2018-07-23T02:57:50.346Z,16.84
2018-07-23T02:58:29.339Z,16.80
2018-07-23T02:59:29.374Z,16.85
2018-07-23T03:00:31.836Z,16.82
2018-07-23T03:01:29.837Z,16.81
2018-07-23T03:02:29.840Z,16.69
2018-07-23T03:03:30.836Z,16.66
2018-07-23T03:04:30.341Z,16.82
2018-07-23T03:05:31.824Z,16.80
2018-07-23T03:06:30.340Z,16.85
2018-07-23T03:07:30.348Z,16.91
2018-07-23T03:10:23.101Z,16.91
2018-07-23T03:11:02.121Z,16.96
2018-07-23T03:12:02.105Z,16.98
2018-07-23T03:13:02.605Z,16.99
2018-07-23T03:14:02.616Z,16.91
2018-07-23T03:15:02.610Z,16.99
2018-07-23T03:16:02.097Z,17.00
2018-07-23T03:18:34.355Z,17.06
2018-07-23T03:19:34.360Z,17.03
2018-07-23T03:20:36.330Z,17.12
2018-07-23T03:23:06.104Z,17.03
2018-07-23T03:24:06.111Z,17.03
2018-07-23T03:25:29.066Z,17.07
2018-07-23T03:26:07.606Z,17.02
2018-07-23T03:27:06.615Z,17.00
2018-07-23T03:28:06.613Z,17.06
2018-07-23T03:29:06.615Z,17.03
2018-07-23T03:30:07.586Z,17.00
2018-07-23T03:31:07.109Z,16.96
2018-07-23T03:32:07.113Z,16.95
2018-07-23T03:33:07.119Z,16.95
2018-07-23T03:34:07.611Z,16.96
2018-07-23T03:35:21.610Z,16.99
2018-07-23T03:36:07.632Z,17.02
2018-07-23T03:37:07.615Z,17.02
2018-07-23T03:38:28.215Z,16.95
2018-07-23T03:40:38.733Z,16.92
2018-07-23T03:41:39.470Z,16.91
2018-07-23T03:43:00.470Z,16.80
2018-07-23T03:45:11.239Z,16.77
2018-07-23T03:46:12.680Z,16.82
2018-07-23T03:47:11.247Z,16.82
2018-07-23T03:48:11.247Z,16.91
2018-07-23T03:49:10.865Z,16.82
2018-07-23T03:50:11.750Z,16.81
2018-07-23T03:52:43.236Z,16.84
2018-07-23T03:53:43.243Z,16.87
2018-07-23T03:54:43.244Z,16.90
2018-07-23T03:57:35.987Z,16.88
2018-07-23T03:58:14.994Z,17.00
2018-07-23T03:59:36.495Z,16.98
2018-07-23T04:00:15.495Z,17.07
2018-07-23T04:01:29.494Z,17.05
2018-07-23T04:02:15.494Z,17.03
2018-07-23T04:03:39.468Z,16.99
2018-07-23T04:05:47.355Z,17.03
2018-07-23T04:06:47.359Z,17.07
2018-07-23T04:07:47.367Z,17.00
2018-07-23T04:08:48.858Z,17.05
2018-07-23T04:09:51.834Z,17.10
2018-07-23T04:10:47.872Z,17.07
2018-07-23T04:11:47.859Z,17.10
2018-07-23T04:13:09.364Z,17.06
2018-07-23T04:13:48.365Z,17.06
2018-07-23T04:14:48.357Z,17.00
2018-07-23T04:15:48.358Z,17.05
2018-07-23T04:16:48.865Z,16.98
2018-07-23T04:17:48.861Z,17.03
2018-07-23T04:20:20.359Z,17.03
2018-07-23T04:21:19.699Z,17.10
2018-07-23T04:22:20.360Z,16.99
2018-07-23T04:23:20.860Z,17.05
2018-07-23T04:25:52.227Z,17.18
2018-07-23T04:27:12.562Z,17.10
2018-07-23T04:27:52.238Z,17.15
2018-07-23T04:28:52.237Z,17.10
2018-07-23T04:30:15.738Z,17.17
2018-07-23T04:32:47.133Z,17.10
2018-07-23T04:33:46.115Z,17.07
2018-07-23T04:34:25.114Z,17.21
2018-07-23T04:35:25.555Z,17.25
2018-07-23T04:36:24.617Z,17.25
2018-07-23T04:37:45.656Z,17.25
2018-07-23T04:38:28.549Z,17.24
2018-07-23T04:39:24.614Z,17.32
2018-07-23T04:40:25.136Z,17.33
2018-07-23T04:41:26.550Z,17.38
2018-07-23T04:42:25.152Z,17.39
2018-07-23T04:43:25.117Z,17.33
2018-07-23T04:44:25.617Z,17.33
2018-07-23T04:47:18.022Z,17.42
2018-07-23T04:47:57.029Z,17.42
2018-07-23T04:48:57.029Z,17.49
2018-07-23T04:49:57.533Z,17.51
2018-07-23T04:51:24.540Z,17.55
2018-07-23T04:51:58.984Z,17.51
2018-07-23T04:53:18.527Z,17.46
2018-07-23T04:53:57.532Z,17.51
2018-07-23T04:55:25.028Z,17.60
2018-07-23T04:55:58.031Z,17.60
2018-07-23T04:56:58.047Z,17.58
2018-07-23T04:57:58.030Z,17.55
2018-07-23T04:58:58.527Z,17.57
2018-07-23T04:59:58.533Z,17.55
2018-07-23T05:01:19.534Z,17.60
2018-07-23T05:02:12.545Z,17.63
2018-07-23T05:02:59.490Z,17.65
2018-07-23T05:04:00.469Z,17.63
2018-07-23T05:05:20.031Z,17.68
2018-07-23T05:06:21.482Z,17.70
2018-07-23T05:07:01.035Z,17.62
2018-07-23T05:14:06.178Z,17.79
2018-07-23T05:15:06.188Z,17.91
2018-07-23T05:16:07.235Z,17.91
2018-07-23T05:17:05.815Z,18.05
2018-07-23T05:18:07.690Z,18.01
2018-07-23T05:19:27.694Z,18.01
2018-07-23T05:20:06.690Z,17.94
2018-07-23T05:21:07.189Z,18.09
2018-07-23T05:22:07.222Z,18.05
2018-07-23T05:23:06.580Z,18.09
2018-07-23T05:24:07.198Z,18.11
2018-07-23T05:25:07.690Z,18.10
2018-07-23T05:26:07.703Z,18.23
2018-07-23T05:27:07.695Z,18.17
2018-07-23T05:28:07.690Z,18.23
2018-07-23T05:32:12.864Z,18.28
2018-07-23T05:33:10.871Z,18.25
2018-07-23T05:34:10.872Z,18.25
2018-07-23T05:35:11.375Z,18.32
2018-07-23T05:36:11.379Z,18.38
2018-07-23T05:37:10.719Z,18.35
2018-07-23T05:38:11.382Z,18.38
2018-07-23T05:42:14.575Z,18.56
2018-07-23T05:43:17.015Z,18.57
2018-07-23T05:44:14.106Z,18.62
2018-07-23T05:45:42.083Z,18.54
2018-07-23T05:46:36.170Z,18.57
2018-07-23T05:48:45.893Z,18.60
2018-07-23T05:49:48.070Z,18.68
2018-07-23T05:50:46.637Z,18.71
2018-07-23T05:51:47.137Z,18.72
2018-07-23T05:53:08.137Z,18.79
2018-07-23T05:53:47.135Z,18.89
2018-07-23T05:54:47.161Z,18.89
2018-07-23T05:56:10.105Z,18.93
2018-07-23T05:58:20.428Z,19.12
2018-07-23T05:59:24.999Z,19.17
2018-07-23T06:00:19.502Z,19.21
2018-07-23T06:02:52.190Z,19.34
2018-07-23T06:03:56.759Z,19.28
2018-07-23T06:04:50.769Z,19.34
2018-07-23T06:05:50.396Z,19.46
2018-07-23T06:07:12.260Z,19.55
2018-07-23T06:09:22.063Z,19.67
2018-07-23T06:10:22.770Z,19.68
2018-07-23T06:11:22.767Z,19.79
2018-07-23T06:12:24.701Z,19.82
2018-07-23T06:13:23.339Z,19.87
2018-07-23T06:14:23.268Z,19.86
2018-07-23T06:15:22.742Z,19.97
2018-07-23T06:16:24.731Z,19.95
2018-07-23T06:17:23.810Z,20.07
2018-07-23T06:18:23.783Z,20.04
2018-07-23T06:19:23.769Z,20.15
2018-07-23T06:20:25.265Z,20.20
2018-07-23T06:21:24.267Z,20.25
2018-07-23T06:22:24.274Z,20.25
2018-07-23T06:23:24.316Z,20.34
2018-07-23T06:24:47.773Z,20.35
2018-07-23T06:25:24.769Z,20.40
2018-07-23T06:26:24.767Z,20.42
2018-07-23T06:27:24.270Z,20.51
2018-07-23T06:28:27.268Z,20.51
2018-07-23T06:29:24.496Z,20.48
2018-07-23T06:30:31.280Z,20.64
2018-07-23T06:31:47.204Z,20.57
2018-07-23T06:32:27.279Z,20.58
2018-07-23T06:33:25.014Z,20.69
2018-07-23T06:34:25.775Z,20.72
2018-07-23T06:35:25.781Z,20.81
2018-07-23T06:36:28.201Z,20.83
2018-07-23T06:37:28.293Z,20.98
2018-07-23T06:38:26.264Z,20.96
2018-07-23T06:39:47.277Z,21.01
2018-07-23T06:40:32.797Z,21.06
2018-07-23T06:41:26.768Z,21.09
2018-07-23T06:42:26.769Z,21.03
2018-07-23T06:43:26.852Z,21.01
2018-07-23T06:44:28.701Z,21.13
2018-07-23T06:45:27.272Z,21.13
2018-07-23T06:46:26.637Z,21.22
2018-07-23T06:47:28.201Z,21.18
2018-07-23T06:48:48.769Z,21.33
2018-07-23T06:49:41.767Z,21.33
2018-07-23T06:50:33.769Z,21.37
2018-07-23T06:51:27.770Z,21.31
2018-07-23T06:52:49.270Z,21.43
2018-07-23T06:53:49.270Z,21.51
2018-07-23T06:54:42.269Z,21.51
2018-07-23T06:55:28.770Z,21.53
2018-07-23T06:58:21.020Z,21.70
2018-07-23T07:00:33.571Z,21.83
2018-07-23T07:01:30.871Z,21.94
2018-07-23T07:02:31.529Z,21.98
2018-07-23T07:04:00.487Z,22.01
2018-07-23T07:06:25.372Z,22.14
2018-07-23T07:07:09.373Z,22.09
2018-07-23T07:08:05.875Z,22.12
2018-07-23T07:09:03.873Z,22.27
2018-07-23T07:13:27.425Z,22.29
2018-07-23T07:14:07.071Z,22.44
2018-07-23T07:15:07.138Z,22.39
2018-07-23T07:16:06.741Z,22.52
2018-07-23T07:17:28.638Z,22.57
2018-07-23T07:18:09.639Z,22.67
2018-07-23T07:19:07.638Z,22.69
2018-07-23T07:21:41.394Z,22.85
2018-07-23T07:23:06.412Z,22.88
2018-07-23T07:23:45.401Z,22.86
2018-07-23T07:26:33.097Z,23.06
2018-07-23T07:27:10.517Z,23.18
2018-07-23T07:28:11.166Z,23.26
2018-07-23T07:29:10.756Z,23.29
2018-07-23T07:30:19.131Z,23.41
2018-07-23T07:31:11.664Z,23.50
2018-07-23T07:32:11.661Z,23.54
2018-07-23T07:33:11.296Z,23.54
2018-07-23T07:34:15.161Z,23.56
2018-07-23T07:35:12.162Z,23.60
2018-07-23T07:36:13.162Z,23.74
2018-07-23T07:37:11.770Z,23.87
2018-07-23T07:38:33.662Z,23.99
2018-07-23T07:39:12.672Z,23.99
2018-07-23T07:40:12.663Z,24.02
2018-07-23T07:42:44.441Z,24.29
2018-07-23T07:43:44.455Z,24.23
2018-07-23T07:44:44.434Z,24.33
2018-07-23T07:45:47.391Z,24.39
2018-07-23T07:46:46.376Z,24.46
2018-07-23T07:47:44.935Z,24.41
2018-07-23T07:48:44.936Z,24.46
2018-07-23T07:49:45.867Z,24.61
2018-07-23T07:51:08.434Z,24.67
2018-07-23T07:51:46.914Z,24.71
2018-07-23T07:52:46.867Z,24.71
2018-07-23T07:53:45.450Z,24.87
2018-07-23T07:55:06.934Z,24.92
2018-07-23T07:55:45.935Z,24.94
2018-07-23T07:56:45.934Z,25.08
2018-07-23T07:57:45.940Z,25.12
2018-07-23T07:58:45.551Z,25.08
2018-07-23T08:01:18.343Z,25.23
2018-07-23T08:02:17.697Z,25.31
2018-07-23T08:03:24.780Z,25.31
2018-07-23T08:04:17.913Z,25.34
2018-07-23T08:08:42.656Z,25.59
2018-07-23T08:09:21.015Z,25.61
2018-07-23T08:10:21.663Z,25.66
2018-07-23T08:11:36.196Z,25.71
2018-07-23T08:12:22.165Z,25.79
2018-07-23T08:13:22.304Z,25.85
2018-07-23T08:14:22.164Z,25.96
2018-07-23T08:15:22.168Z,25.97
2018-07-23T08:19:26.370Z,26.04
2018-07-23T08:20:26.366Z,26.04
2018-07-23T08:21:26.369Z,26.12
2018-07-23T08:23:58.141Z,26.27
2018-07-23T08:24:58.135Z,26.36
2018-07-23T08:26:01.564Z,26.35
2018-07-23T08:27:18.713Z,26.29
2018-07-23T08:29:30.477Z,26.46
2018-07-23T08:30:29.983Z,26.61
2018-07-23T08:31:29.992Z,26.59
2018-07-23T08:32:30.485Z,26.68
2018-07-23T08:33:31.917Z,26.76
2018-07-23T08:34:31.487Z,26.75
2018-07-23T08:35:30.483Z,26.73
2018-07-23T08:36:58.028Z,26.59
2018-07-23T08:37:32.986Z,26.72
2018-07-23T08:38:30.345Z,26.81
2018-07-23T08:39:30.985Z,26.86
2018-07-23T08:42:02.047Z,26.78
2018-07-23T08:43:16.753Z,26.71
2018-07-23T08:44:02.242Z,26.66
2018-07-23T08:45:24.252Z,26.75
2018-07-23T08:46:23.463Z,26.87
2018-07-23T08:47:24.257Z,26.96
2018-07-23T08:48:03.250Z,27.01
2018-07-23T08:50:34.304Z,27.34
2018-07-23T08:53:06.573Z,27.45
2018-07-23T08:54:05.937Z,27.31
2018-07-23T08:55:06.579Z,27.33
2018-07-23T08:56:11.528Z,27.31
2018-07-23T08:57:06.322Z,27.33
2018-07-23T08:58:31.011Z,27.39
2018-07-23T08:59:07.079Z,27.52
2018-07-23T09:01:38.860Z,27.71
2018-07-23T09:02:39.852Z,27.65
2018-07-23T09:03:59.873Z,27.69
2018-07-23T09:04:45.368Z,27.63
2018-07-23T09:07:12.750Z,27.72
2018-07-23T09:08:10.112Z,27.83
2018-07-23T09:09:31.761Z,27.86
2018-07-23T09:10:25.264Z,27.91
2018-07-23T09:11:17.256Z,27.93
2018-07-23T09:12:12.255Z,28.05
2018-07-23T09:13:10.745Z,28.11
2018-07-23T09:14:33.734Z,28.25
2018-07-23T09:15:31.939Z,28.33
2018-07-23T09:16:33.752Z,28.35
2018-07-23T09:17:11.811Z,28.36
2018-07-23T09:18:37.189Z,28.33
2018-07-23T09:19:13.255Z,28.28
2018-07-23T09:20:32.624Z,28.25
2018-07-23T09:24:15.089Z,28.33
2018-07-23T09:25:15.834Z,28.38
2018-07-23T09:26:15.835Z,28.36
2018-07-23T09:27:16.341Z,28.38
2018-07-23T09:28:37.336Z,28.39
2018-07-23T09:29:16.333Z,28.32
2018-07-23T09:30:15.858Z,28.35
2018-07-23T09:31:18.831Z,28.36
2018-07-23T09:32:17.816Z,28.43
2018-07-23T09:33:30.841Z,28.55
2018-07-23T09:34:16.836Z,28.64
2018-07-23T09:35:17.335Z,28.82
2018-07-23T09:36:16.602Z,28.83
2018-07-23T09:37:39.768Z,28.92
2018-07-23T09:38:38.335Z,28.83
2018-07-23T09:39:17.836Z,28.72
2018-07-23T09:40:17.847Z,28.85
2018-07-23T09:41:17.841Z,28.87
2018-07-23T09:42:38.334Z,28.83
2018-07-23T09:43:24.336Z,28.83
2018-07-23T09:44:18.343Z,28.91
2018-07-23T09:45:18.355Z,29.02
2018-07-23T09:46:17.850Z,29.05
2018-07-23T09:47:18.836Z,29.12
2018-07-23T09:48:39.836Z,29.25
2018-07-23T09:49:18.193Z,29.18
2018-07-23T09:50:24.896Z,29.18
2018-07-23T09:51:19.337Z,29.12
2018-07-23T09:53:50.016Z,29.02
2018-07-23T09:55:05.727Z,28.91
2018-07-23T09:55:50.729Z,28.74
2018-07-23T09:56:51.229Z,28.61
2018-07-23T09:59:22.621Z,28.65
2018-07-23T10:00:24.640Z,28.55
2018-07-23T10:01:22.628Z,28.60
2018-07-23T10:02:23.128Z,28.73
2018-07-23T10:03:45.128Z,28.85
2018-07-23T10:04:23.129Z,28.77
2018-07-23T10:06:54.770Z,28.82
2018-07-23T10:07:56.777Z,28.98
2018-07-23T10:08:54.777Z,29.00
2018-07-23T10:10:17.282Z,29.12
2018-07-23T10:10:54.560Z,29.17
2018-07-23T10:11:56.218Z,29.23
2018-07-23T10:14:26.876Z,29.20
2018-07-23T10:15:26.874Z,29.10
2018-07-23T10:16:27.870Z,28.98
2018-07-23T10:17:54.376Z,29.00
2018-07-23T10:18:29.377Z,29.15
2018-07-23T10:19:54.372Z,29.32
2018-07-23T10:20:27.375Z,29.39
2018-07-23T10:21:27.873Z,29.30
2018-07-23T10:22:27.879Z,29.47
2018-07-23T10:23:27.872Z,29.48
2018-07-23T10:24:27.356Z,29.60
2018-07-23T10:25:34.373Z,29.52
2018-07-23T10:26:27.638Z,29.48
2018-07-23T10:27:28.829Z,29.48
2018-07-23T10:28:27.823Z,29.18
2018-07-23T10:29:49.873Z,28.98
2018-07-23T10:30:27.987Z,28.83
2018-07-23T10:31:34.874Z,28.91
2018-07-23T10:32:28.873Z,28.95
2018-07-23T10:33:30.876Z,29.12
2018-07-23T10:34:43.377Z,29.26
2018-07-23T10:35:49.595Z,29.39
2018-07-23T10:36:28.704Z,29.39
2018-07-23T10:37:29.384Z,29.39
2018-07-23T10:38:50.375Z,29.42
2018-07-23T10:39:29.874Z,29.62
2018-07-23T10:40:29.874Z,29.70
2018-07-23T10:41:29.875Z,29.51
2018-07-23T10:42:29.875Z,29.33
2018-07-23T10:45:22.672Z,29.11
2018-07-23T10:46:01.687Z,29.11
2018-07-23T10:47:01.689Z,28.97
2018-07-23T10:48:03.651Z,28.97
2018-07-23T10:49:02.180Z,29.18
2018-07-23T10:50:03.182Z,29.23
2018-07-23T10:51:02.198Z,29.29
2018-07-23T10:53:39.943Z,29.12
2018-07-23T10:54:55.949Z,29.11
2018-07-23T10:55:33.957Z,29.00
2018-07-23T10:56:54.534Z,29.25
2018-07-23T10:57:55.455Z,29.30
2018-07-23T10:58:34.451Z,29.26
2018-07-23T10:59:33.943Z,29.25
2018-07-23T11:02:06.110Z,28.98
2018-07-23T11:03:06.770Z,28.94
2018-07-23T11:05:38.532Z,28.95
2018-07-23T11:09:46.745Z,29.48
2018-07-23T11:10:46.718Z,29.36
2018-07-23T11:13:18.367Z,29.23
2018-07-23T11:14:18.370Z,29.10
2018-07-23T11:15:18.365Z,29.21
2018-07-23T11:17:18.863Z,29.32
2018-07-23T11:18:39.862Z,29.52
2018-07-23T11:19:18.441Z,29.64
2018-07-23T11:20:19.435Z,29.82
2018-07-23T11:22:50.781Z,30.34
2018-07-23T11:23:50.773Z,30.40
2018-07-23T11:25:38.875Z,30.28
2018-07-23T11:25:52.218Z,30.32
2018-07-23T11:27:25.299Z,30.37
2018-07-23T11:27:50.654Z,30.26
2018-07-23T11:28:52.213Z,30.19
2018-07-23T11:30:12.776Z,30.19
2018-07-23T11:31:12.776Z,30.23
2018-07-23T11:32:05.804Z,30.36
2018-07-23T11:33:13.772Z,30.54
2018-07-23T11:34:14.247Z,30.45
2018-07-23T11:34:53.272Z,30.51
2018-07-23T11:35:51.669Z,30.57
2018-07-23T11:36:52.274Z,30.61
2018-07-23T11:38:13.775Z,30.70
2018-07-23T11:38:52.013Z,30.59
2018-07-23T11:39:52.774Z,30.61
2018-07-23T11:40:52.775Z,30.56
2018-07-23T11:41:53.286Z,30.72
2018-07-23T11:42:53.283Z,30.68
2018-07-23T11:43:52.661Z,30.76
2018-07-23T11:44:52.770Z,30.82
2018-07-23T11:45:55.239Z,31.00
2018-07-23T11:47:13.986Z,31.05
2018-07-23T11:47:53.059Z,31.19
2018-07-23T11:48:53.777Z,31.32
2018-07-23T11:49:53.789Z,31.45
2018-07-23T11:50:56.257Z,31.37
2018-07-23T11:51:54.273Z,31.41
2018-07-23T11:52:53.633Z,31.38
2018-07-23T11:53:53.740Z,31.40
2018-07-23T11:54:56.242Z,31.25
2018-07-23T11:56:15.781Z,31.30
2018-07-23T11:56:54.809Z,31.37
2018-07-23T11:57:54.775Z,31.41
2018-07-23T11:58:54.388Z,31.41
2018-07-23T11:59:55.297Z,31.53
2018-07-23T12:00:55.276Z,31.68
2018-07-23T12:01:55.278Z,31.50
2018-07-23T12:04:27.150Z,31.90
2018-07-23T12:05:26.416Z,31.92
2018-07-23T12:06:27.060Z,31.95
2018-07-23T12:07:41.559Z,31.82
2018-07-23T12:08:27.580Z,31.95
2018-07-23T12:09:26.966Z,31.98
2018-07-23T12:10:48.569Z,32.07
2018-07-23T12:11:34.058Z,32.02
2018-07-23T12:12:34.062Z,32.14
2018-07-23T12:13:28.100Z,32.24
2018-07-23T12:14:28.657Z,32.34
2018-07-23T12:15:34.560Z,32.54
2018-07-23T12:16:28.561Z,32.54
2018-07-23T12:17:28.652Z,32.72
2018-07-23T12:18:28.571Z,32.84
2018-07-23T12:19:35.073Z,33.09
2018-07-23T12:20:51.494Z,33.15
2018-07-23T12:21:50.063Z,33.22
2018-07-23T12:24:03.547Z,32.99
2018-07-23T12:25:21.623Z,32.72
2018-07-23T12:26:01.142Z,32.56
2018-07-23T12:27:22.114Z,32.28
2018-07-23T12:28:01.127Z,32.16
2018-07-23T12:29:01.115Z,31.91
2018-07-23T12:30:01.613Z,31.79
2018-07-23T12:31:23.613Z,31.84
2018-07-23T12:32:22.017Z,31.60
2018-07-23T12:33:01.617Z,31.47
2018-07-23T12:34:02.115Z,31.37
2018-07-23T12:35:05.048Z,31.52
2018-07-23T12:36:05.578Z,31.85
2018-07-23T12:37:02.115Z,32.16
2018-07-23T12:38:01.726Z,32.36
2018-07-23T12:39:02.616Z,32.68
2018-07-23T12:40:02.676Z,32.72
2018-07-23T12:41:02.619Z,32.91
2018-07-23T12:42:23.268Z,33.15
2018-07-23T12:43:05.117Z,33.45
2018-07-23T12:44:04.054Z,33.72
2018-07-23T12:45:02.554Z,34.01
2018-07-23T12:46:02.685Z,34.11
2018-07-23T12:47:05.106Z,33.75
2018-07-23T12:48:03.617Z,33.53
2018-07-23T12:49:03.625Z,33.71
2018-07-23T12:50:26.556Z,33.75
2018-07-23T12:51:28.589Z,34.00
2018-07-23T12:52:04.122Z,34.40
2018-07-23T12:53:03.615Z,34.50
2018-07-23T12:54:04.617Z,34.63
2018-07-23T12:55:04.617Z,34.87
2018-07-23T12:56:10.637Z,35.13
2018-07-23T12:57:05.115Z,35.21
2018-07-23T12:58:04.226Z,35.05
2018-07-23T12:59:05.116Z,35.02
2018-07-23T13:00:32.117Z,34.87
2018-07-23T13:01:26.116Z,34.37
2018-07-23T13:02:04.730Z,34.01
2018-07-23T13:06:10.480Z,34.12
2018-07-23T13:07:08.489Z,34.31
2018-07-23T13:10:00.461Z,34.88
2018-07-23T13:10:40.203Z,35.10
2018-07-23T13:11:39.695Z,35.21
2018-07-23T13:14:11.974Z,35.93
2018-07-23T13:15:11.984Z,35.80
2018-07-23T13:16:11.609Z,35.98
2018-07-23T13:18:44.025Z,36.78
2018-07-23T13:19:43.900Z,36.96
2018-07-23T13:20:43.892Z,36.99
2018-07-23T13:23:26.156Z,37.31
2018-07-23T13:24:48.162Z,36.93
2018-07-23T13:25:25.173Z,36.56
2018-07-23T13:26:24.781Z,36.28
2018-07-23T13:27:25.671Z,36.37
2018-07-23T13:28:25.799Z,36.53
2018-07-23T13:29:28.164Z,36.77
2018-07-23T13:30:28.167Z,36.77
2018-07-23T13:31:32.165Z,36.86
2018-07-23T13:32:47.165Z,36.72
2018-07-23T13:33:40.165Z,36.99
2018-07-23T13:34:27.639Z,37.06
2018-07-23T13:35:26.664Z,37.24
2018-07-23T13:36:27.663Z,37.31
2018-07-23T13:37:47.663Z,37.49
2018-07-23T13:40:19.452Z,37.62
2018-07-23T13:40:57.804Z,37.24
2018-07-23T13:42:12.455Z,36.89
2018-07-23T13:42:58.070Z,36.79
2018-07-23T13:43:58.962Z,37.08
2018-07-23T13:45:12.954Z,37.35
2018-07-23T13:45:58.954Z,37.49
2018-07-23T13:46:59.470Z,37.47
2018-07-23T13:48:01.460Z,37.24
2018-07-23T13:49:01.888Z,37.54
2018-07-23T13:49:59.455Z,37.66
2018-07-23T13:54:16.745Z,35.12
2018-07-23T13:55:16.714Z,34.69
2018-07-23T13:56:02.716Z,34.31
2018-07-23T13:57:03.219Z,34.00
2018-07-23T13:58:05.219Z,33.65
2018-07-23T13:59:03.218Z,33.44
2018-07-23T14:00:17.220Z,33.17
2018-07-23T14:02:35.008Z,33.21
2018-07-23T14:03:35.015Z,32.91
2018-07-23T14:04:35.013Z,32.68
2018-07-23T14:05:34.628Z,32.51
2018-07-23T14:08:06.912Z,32.03
2018-07-23T14:09:06.936Z,31.82
2018-07-23T14:10:06.426Z,31.78
2018-07-23T14:11:07.421Z,31.53
2018-07-23T14:12:27.644Z,31.49
2018-07-23T14:13:06.755Z,31.41
2018-07-23T14:14:28.420Z,31.27
2018-07-23T14:15:07.957Z,31.28
2018-07-23T14:16:07.154Z,31.20
2018-07-23T14:17:09.352Z,30.96
2018-07-23T14:18:07.401Z,31.04
2018-07-23T14:19:08.429Z,31.05
2018-07-23T14:20:08.419Z,30.98
2018-07-23T14:21:08.420Z,30.88
2018-07-23T14:22:07.909Z,30.79
2018-07-23T14:23:29.006Z,30.78
2018-07-23T14:24:10.353Z,30.75
2018-07-23T14:25:08.918Z,30.67
2018-07-23T14:26:08.924Z,30.75
2018-07-23T14:27:08.532Z,30.82
2018-07-23T14:28:09.419Z,30.90
2018-07-23T14:29:08.779Z,31.19
2018-07-23T14:30:09.437Z,32.17
2018-07-23T14:31:09.104Z,33.02
2018-07-23T14:32:13.884Z,33.89
2018-07-23T14:33:09.934Z,34.49
2018-07-23T14:36:04.697Z,33.81
2018-07-23T14:37:03.703Z,33.50
2018-07-23T14:39:13.481Z,33.26
2018-07-23T14:40:35.919Z,34.03
2018-07-23T14:41:14.445Z,34.65
2018-07-23T14:42:13.099Z,35.09
2018-07-23T14:43:34.993Z,35.84
2018-07-23T14:44:13.919Z,36.12
2018-07-23T14:45:14.420Z,35.78
2018-07-23T14:46:13.550Z,35.76
2018-07-23T14:47:14.487Z,34.88
2018-07-23T14:48:31.460Z,34.16
2018-07-23T14:49:14.488Z,33.63
2018-07-23T14:50:14.489Z,32.88
2018-07-23T14:51:16.991Z,32.73
2018-07-23T14:53:45.726Z,32.16
2018-07-23T14:55:07.415Z,31.99
2018-07-23T14:56:06.888Z,31.92
2018-07-23T14:56:45.993Z,31.90
2018-07-23T14:57:46.135Z,31.84
2018-07-23T14:58:46.234Z,31.60
2018-07-23T14:59:46.916Z,31.56
2018-07-23T15:00:46.919Z,31.38
2018-07-23T15:03:24.721Z,31.04
2018-07-23T15:04:18.705Z,31.15
2018-07-23T15:05:18.706Z,31.20
2018-07-23T15:07:56.500Z,32.80
2018-07-23T15:09:04.490Z,33.45
2018-07-23T15:10:13.503Z,33.92